Kaibeto, Arizona
Current Conditions -  °F | °C
As of 6:54 AM on Wednesday 26 Nov 2014 (Local Time) from KGCN Reporting Station
Clear Clear  
Wind Chill: 16°   Ceiling: Unl
Heat Index: 16°   Visibility: 10mi
Dew Point:   Wind: 0mph
Humidity: 65%   Direction: NA
Pressure: 30.44"   Gusts: NA
Location:  36.4905°N, 111.31°W
Report Text: KGCN 261354Z AUTO 00000KT 10SM CLR M09/M14 A3044 RMK AO2 SLP334 T10891144
Loading
Personal Weather Stations






























Interactive Weather Map New forecast layout! Learn more

10-Day Weather Forecast

Advertisements
Track Severe Weather on mobile